Time;durP1;ratioP1;P1;durP2;ratioP2;P2;SDS_P1;SDS_P2;PMS_P1;PMS_P2;Temp;Humidity;BMP_temperature;BMP_pressure;BME280_temperature;BME280_humidity;BME280_pressure;Samples;Min_cycle;Max_cycle;Signal;HPM_P1;HPM_P2
2022/07/10 00:02:06;;;;;;;3.58;1.35;;;;;;;18.54;50.02;102671.56;4988550;28;113365;-65
2022/07/10 00:04:33;;;;;;;3.00;1.40;;;;;;;18.54;49.97;102666.22;4983604;28;124751;-64
2022/07/10 00:07:01;;;;;;;3.25;1.55;;;;;;;18.55;50.32;102670.59;4987104;28;124279;-63
2022/07/10 00:09:29;;;;;;;4.38;1.50;;;;;;;18.58;50.18;102678.53;4986026;28;115096;-63
2022/07/10 00:11:56;;;;;;;3.55;1.50;;;;;;;18.59;50.09;102669.50;4987826;28;115020;-64
2022/07/10 00:14:24;;;;;;;4.70;1.50;;;;;;;18.58;49.91;102668.66;4985557;28;124139;-63
2022/07/10 00:16:51;;;;;;;5.88;1.58;;;;;;;18.58;50.06;102668.66;4986534;28;124517;-63
2022/07/10 00:19:18;;;;;;;8.65;1.65;;;;;;;18.59;50.14;102656.09;4987433;28;114154;-64
2022/07/10 00:21:45;;;;;;;2.90;1.27;;;;;;;18.60;50.24;102650.66;4985144;28;114604;-63
2022/07/10 00:24:12;;;;;;;4.65;1.50;;;;;;;18.64;50.24;102656.72;4986789;28;124109;-64
2022/07/10 00:26:39;;;;;;;4.82;1.33;;;;;;;18.66;50.15;102660.22;4987510;28;124688;-64
2022/07/10 00:29:08;;;;;;;4.45;1.60;;;;;;;18.66;50.29;102670.94;4987184;28;114947;-63
2022/07/10 00:31:35;;;;;;;3.42;1.25;;;;;;;18.67;50.15;102667.31;4986708;28;113753;-63
2022/07/10 00:34:03;;;;;;;2.85;1.20;;;;;;;18.69;50.16;102668.13;4988859;28;124628;-63
2022/07/10 00:36:30;;;;;;;3.58;1.65;;;;;;;18.71;50.11;102671.59;4988245;28;123974;-62
2022/07/10 00:38:57;;;;;;;4.55;1.40;;;;;;;18.69;50.04;102662.75;4987159;28;114403;-63
2022/07/10 00:41:24;;;;;;;5.38;1.42;;;;;;;18.69;50.39;102660.06;4988321;28;114584;-63
2022/07/10 00:43:51;;;;;;;3.20;1.40;;;;;;;18.67;50.29;102659.28;4988444;28;123729;-63
2022/07/10 00:46:22;;;;;;;5.28;1.42;;;;;;;18.66;50.34;102654.84;4991095;28;124077;-64
2022/07/10 00:48:50;;;;;;;3.58;1.20;;;;;;;18.66;50.69;102660.22;4990011;28;114632;-63
2022/07/10 00:51:20;;;;;;;4.97;1.30;;;;;;;18.67;50.39;102656.59;4983455;28;115113;-64
2022/07/10 00:53:50;;;;;;;3.03;1.33;;;;;;;18.67;50.17;102651.22;4987423;28;124375;-64
2022/07/10 00:56:22;;;;;;;3.67;1.40;;;;;;;18.65;50.21;102642.38;4987268;28;124514;-64
2022/07/10 00:58:50;;;;;;;3.95;1.30;;;;;;;18.64;50.34;102635.25;4989375;28;115077;-65
2022/07/10 01:01:18;;;;;;;5.47;1.42;;;;;;;18.61;50.36;102630.03;4984945;28;115483;-64
2022/07/10 01:03:46;;;;;;;3.78;1.55;;;;;;;18.59;50.31;102635.50;4989887;28;124166;-64
2022/07/10 01:06:14;;;;;;;3.20;1.30;;;;;;;18.57;50.25;102626.66;4989927;28;124403;-64
2022/07/10 01:08:42;;;;;;;4.55;1.55;;;;;;;18.55;50.29;102625.84;4983531;28;114629;-64
2022/07/10 01:11:11;;;;;;;2.85;1.33;;;;;;;18.54;50.48;102617.91;4990083;28;114036;-64
2022/07/10 01:13:38;;;;;;;4.05;1.58;;;;;;;18.52;50.39;102617.13;4990625;28;123804;-63
2022/07/10 01:16:06;;;;;;;6.18;1.38;;;;;;;18.49;50.50;102621.66;4989476;28;124901;-64
2022/07/10 01:18:33;;;;;;;3.28;1.42;;;;;;;18.46;50.32;102619.16;4988508;28;113999;-64
2022/07/10 01:21:00;;;;;;;5.72;1.40;;;;;;;18.42;50.47;102614.88;4988673;28;114800;-64
2022/07/10 01:23:27;;;;;;;4.90;1.40;;;;;;;18.39;50.56;102619.53;4988386;28;123989;-64
2022/07/10 01:25:55;;;;;;;3.95;1.15;;;;;;;18.36;50.49;102614.31;4989010;28;124674;-64
2022/07/10 01:28:22;;;;;;;4.47;1.40;;;;;;;18.30;50.51;102626.22;4984965;28;114623;-64
2022/07/10 01:30:49;;;;;;;4.28;1.70;;;;;;;18.27;50.60;102620.97;4991750;28;114417;-64
2022/07/10 01:33:17;;;;;;;7.18;1.63;;;;;;;18.21;50.70;102621.28;4986870;28;124558;-64
2022/07/10 01:35:44;;;;;;;3.63;1.40;;;;;;;18.16;50.84;102616.16;4989988;28;123931;-64
2022/07/10 01:38:11;;;;;;;3.70;1.20;;;;;;;18.11;50.79;102610.16;4990293;28;114445;-64
2022/07/10 01:40:38;;;;;;;4.13;1.42;;;;;;;18.08;50.94;102613.88;4992519;28;114288;-64
2022/07/10 01:43:05;;;;;;;3.28;1.40;;;;;;;18.07;51.00;102614.78;4990846;28;123870;-64
2022/07/10 01:45:32;;;;;;;4.30;1.63;;;;;;;18.05;51.39;102614.00;4990850;28;123862;-64
2022/07/10 01:48:00;;;;;;;3.13;1.23;;;;;;;18.03;51.15;102612.34;4988420;28;115138;-64
2022/07/10 01:50:27;;;;;;;5.50;1.70;;;;;;;18.01;51.05;102614.25;4989761;28;114567;-64
2022/07/10 01:52:54;;;;;;;4.15;1.55;;;;;;;17.98;51.22;102609.88;4988901;28;124363;-64
2022/07/10 01:55:21;;;;;;;4.72;1.58;;;;;;;17.96;51.39;102617.13;4989244;28;124090;-64
2022/07/10 01:57:48;;;;;;;6.07;1.80;;;;;;;17.95;51.22;102610.03;4985822;28;114423;-64
2022/07/10 02:00:17;;;;;;;5.60;1.73;;;;;;;17.93;51.56;102606.53;4983417;28;114282;-64
2022/07/10 02:04:40;;;;;;;3.42;1.50;;;;;;;17.92;51.53;102599.44;4984729;28;123952;-64
2022/07/10 02:05:32;;;;;;;4.53;1.80;;;;;;;17.92;51.49;102612.00;4987830;28;125716;-64
2022/07/10 02:07:59;;;;;;;2.63;1.42;;;;;;;17.91;51.42;102613.78;4988554;28;114279;-64
2022/07/10 02:10:26;;;;;;;4.38;1.58;;;;;;;17.90;51.55;102606.69;4990789;28;113112;-64
2022/07/10 02:12:53;;;;;;;4.38;1.38;;;;;;;17.89;51.63;102607.63;4985656;28;124137;-63
2022/07/10 02:15:20;;;;;;;3.80;1.40;;;;;;;17.90;51.75;102601.34;4986735;28;124089;-63
2022/07/10 02:17:48;;;;;;;4.82;1.73;;;;;;;17.91;51.44;102603.06;4987765;28;114341;-63
2022/07/10 02:20:15;;;;;;;5.53;1.50;;;;;;;17.91;51.58;102603.06;4988808;28;113740;-63
2022/07/10 02:22:42;;;;;;;2.53;1.40;;;;;;;17.92;51.53;102599.44;4984327;28;124187;-63
2022/07/10 02:25:09;;;;;;;3.17;1.30;;;;;;;17.91;51.59;102603.06;4987195;28;123738;-63
2022/07/10 02:27:36;;;;;;;4.22;1.58;;;;;;;17.92;51.69;102603.94;4988537;28;114734;-62
2022/07/10 02:30:04;;;;;;;4.85;1.70;;;;;;;17.91;51.68;102603.06;4985656;28;114037;-62
2022/07/10 02:32:32;;;;;;;5.50;1.65;;;;;;;17.89;51.47;102596.91;4986070;28;124088;-63
2022/07/10 02:34:59;;;;;;;4.25;1.40;;;;;;;17.86;51.67;102599.75;4988301;28;122682;-62
2022/07/10 02:37:26;;;;;;;6.50;1.73;;;;;;;17.83;51.77;102594.50;4988542;28;115139;-63
2022/07/10 02:39:53;;;;;;;4.90;1.50;;;;;;;17.81;51.58;102596.38;4988848;28;114587;-64
2022/07/10 02:42:20;;;;;;;3.08;1.33;;;;;;;17.79;51.71;102598.28;4988001;28;124322;-64
2022/07/10 02:44:47;;;;;;;3.50;1.50;;;;;;;17.77;51.78;102600.16;4985503;28;123863;-64
2022/07/10 02:47:14;;;;;;;4.53;1.42;;;;;;;17.76;51.69;102593.03;4985176;28;114433;-64
2022/07/10 02:49:43;;;;;;;6.10;1.98;;;;;;;17.76;51.95;102598.41;4987715;28;114018;-64
2022/07/10 02:52:10;;;;;;;7.47;1.92;;;;;;;17.74;51.99;102594.94;4986801;28;124078;-64
2022/07/10 02:54:37;;;;;;;4.03;1.63;;;;;;;17.74;51.95;102597.59;4990030;28;122875;-64
2022/07/10 02:57:05;;;;;;;6.88;1.83;;;;;;;17.72;52.05;102595.00;4988491;28;115049;-64
2022/07/10 02:59:32;;;;;;;4.30;1.60;;;;;;;17.70;52.15;102600.41;4987163;28;114032;-64
2022/07/10 03:02:00;;;;;;;5.28;1.70;;;;;;;17.71;52.23;102594.13;4982634;28;124282;-64
2022/07/10 03:04:28;;;;;;;4.22;1.77;;;;;;;17.72;52.38;102592.31;4985925;28;124262;-64
2022/07/10 03:06:55;;;;;;;6.22;1.70;;;;;;;17.73;52.35;102588.72;4988985;28;114853;-64
2022/07/10 03:09:22;;;;;;;6.93;2.22;;;;;;;17.76;52.43;102593.03;4983274;28;113685;-63
2022/07/10 03:11:49;;;;;;;2.88;1.67;;;;;;;17.77;52.40;102592.13;4986367;28;123866;-64
2022/07/10 03:14:17;;;;;;;4.85;1.65;;;;;;;17.78;52.37;102592.03;4985019;28;123765;-63
2022/07/10 03:16:44;;;;;;;4.22;1.98;;;;;;;17.79;52.36;102582.19;4985105;28;114362;-64
2022/07/10 03:19:11;;;;;;;5.88;2.20;;;;;;;17.82;52.38;102585.59;4988048;28;113826;-64
2022/07/10 03:21:39;;;;;;;5.20;1.52;;;;;;;17.83;52.41;102578.41;4983650;28;124559;-64
2022/07/10 03:24:06;;;;;;;4.65;1.67;;;;;;;17.83;52.38;102578.41;4985837;28;124685;-64
2022/07/10 03:26:33;;;;;;;4.68;1.40;;;;;;;17.83;52.70;102586.44;4983394;28;115081;-64
2022/07/10 03:29:01;;;;;;;3.75;1.52;;;;;;;17.83;52.44;102578.41;4986394;28;115903;-64
2022/07/10 03:31:28;;;;;;;4.32;1.48;;;;;;;17.81;52.44;102577.63;4986563;28;124396;-64
2022/07/10 03:33:55;;;;;;;5.95;1.73;;;;;;;17.79;52.53;102577.69;4985672;28;124695;-63
2022/07/10 03:36:22;;;;;;;5.45;1.52;;;;;;;17.80;52.59;102583.91;4980351;28;114431;-64
2022/07/10 03:38:49;;;;;;;3.55;1.77;;;;;;;17.80;52.53;102573.19;4981108;28;114347;-65
2022/07/10 03:41:16;;;;;;;4.03;1.73;;;;;;;17.81;52.70;102566.91;4979761;28;123905;-64
2022/07/10 03:43:43;;;;;;;4.95;1.73;;;;;;;17.80;52.57;102562.47;4985061;28;123834;-63
2022/07/10 03:46:11;;;;;;;5.53;1.63;;;;;;;17.80;52.64;102567.81;4984211;28;114099;-64
2022/07/10 03:48:38;;;;;;;4.80;1.80;;;;;;;17.79;52.64;102582.19;4979819;28;114220;-64
2022/07/10 03:51:06;;;;;;;5.13;1.90;;;;;;;17.79;52.59;102582.19;4987271;28;124211;-64
2022/07/10 03:53:33;;;;;;;8.82;2.00;;;;;;;17.78;52.71;102580.44;4984834;28;124044;-64
2022/07/10 03:56:00;;;;;;;3.50;1.63;;;;;;;17.78;52.73;102572.41;4982726;28;114321;-64
2022/07/10 03:58:27;;;;;;;5.28;2.10;;;;;;;17.79;52.78;102576.81;4987008;28;114262;-64
2022/07/10 04:00:54;;;;;;;5.53;2.15;;;;;;;17.80;52.84;102578.53;4985250;28;127356;-64
2022/07/10 04:03:21;;;;;;;5.32;1.83;;;;;;;17.81;53.07;102574.94;4985854;28;123914;-64
2022/07/10 04:05:49;;;;;;;5.03;1.95;;;;;;;17.80;52.73;102573.19;4989376;28;113500;-64
2022/07/10 04:08:16;;;;;;;5.28;1.98;;;;;;;17.79;52.86;102576.81;4983186;28;113793;-64
2022/07/10 04:10:43;;;;;;;5.53;2.08;;;;;;;17.77;53.02;102568.00;4988897;28;123804;-64
2022/07/10 04:13:10;;;;;;;3.63;1.50;;;;;;;17.78;53.10;102559.00;4991289;28;122917;-63
2022/07/10 04:15:37;;;;;;;5.22;1.83;;;;;;;17.80;53.07;102574.06;4988154;28;115299;-64
2022/07/10 04:18:04;;;;;;;6.43;1.95;;;;;;;17.81;53.16;102572.25;4989672;28;114894;-64
2022/07/10 04:20:32;;;;;;;4.90;1.90;;;;;;;17.80;53.06;102566.03;4991894;28;123499;-64
2022/07/10 04:22:59;;;;;;;4.30;1.67;;;;;;;17.81;53.32;102565.06;4983431;28;122669;-64
2022/07/10 04:25:26;;;;;;;6.32;2.35;;;;;;;17.84;53.13;102564.09;4991525;28;114433;-64
2022/07/10 04:27:53;;;;;;;6.85;1.90;;;;;;;17.85;53.30;102565.84;4988878;28;113851;-64
2022/07/10 04:30:20;;;;;;;5.07;1.85;;;;;;;17.86;53.31;102563.09;5003074;28;123914;-64
2022/07/10 04:32:48;;;;;;;4.65;2.10;;;;;;;17.87;53.27;102563.94;4985286;28;123844;-64
2022/07/10 04:35:15;;;;;;;5.97;1.92;;;;;;;17.90;53.32;102569.16;4992696;28;113293;-64
2022/07/10 04:37:42;;;;;;;6.82;2.72;;;;;;;17.91;53.48;102570.88;4988628;28;113923;-64
2022/07/10 04:40:10;;;;;;;5.13;2.00;;;;;;;17.91;53.46;102570.88;4991003;28;124764;-64
2022/07/10 04:42:38;;;;;;;7.25;2.15;;;;;;;17.92;53.40;102578.00;4990456;28;123707;-64
2022/07/10 04:45:05;;;;;;;6.45;2.00;;;;;;;17.96;53.65;102574.22;4987790;28;114452;-64
2022/07/10 04:47:33;;;;;;;6.05;2.10;;;;;;;17.99;53.48;102579.44;4988802;28;114523;-64
2022/07/10 04:50:00;;;;;;;5.82;2.30;;;;;;;18.02;53.60;102578.41;4989257;28;123411;-64
2022/07/10 04:52:28;;;;;;;7.80;2.33;;;;;;;18.03;53.48;102580.19;4990151;28;124404;-64
2022/07/10 04:54:55;;;;;;;5.65;2.20;;;;;;;18.06;53.56;102577.31;4990062;28;114359;-63
2022/07/10 04:57:22;;;;;;;4.22;1.98;;;;;;;18.07;53.59;102569.22;4989674;28;113083;-64
2022/07/10 04:59:49;;;;;;;4.85;2.13;;;;;;;18.09;53.63;102575.38;4983806;28;124165;-63
2022/07/10 05:02:17;;;;;;;7.70;2.17;;;;;;;18.11;53.72;102577.13;4988276;28;125047;-64
2022/07/10 05:04:44;;;;;;;6.38;2.28;;;;;;;18.15;53.69;102578.69;4987049;28;115276;-63
2022/07/10 05:07:11;;;;;;;5.95;2.50;;;;;;;18.19;53.72;102585.63;4989114;28;114770;-63
2022/07/10 05:09:38;;;;;;;6.05;2.08;;;;;;;18.23;53.75;102581.84;4990105;28;123918;-63
2022/07/10 05:12:06;;;;;;;5.85;2.30;;;;;;;18.25;53.68;102579.97;4988406;28;124896;-63
2022/07/10 05:14:33;;;;;;;4.28;1.90;;;;;;;18.26;53.60;102576.34;4990145;28;114619;-64
2022/07/10 05:17:00;;;;;;;5.85;2.47;;;;;;;18.26;53.60;102571.00;4988240;28;114328;-64
2022/07/10 05:19:28;;;;;;;4.25;2.00;;;;;;;18.29;53.67;102577.06;4987430;28;124026;-63
2022/07/10 05:21:55;;;;;;;3.10;2.20;;;;;;;18.32;53.88;102581.41;4990272;28;124275;-62
2022/07/10 05:24:22;;;;;;;4.93;1.98;;;;;;;18.36;53.72;102582.97;4987493;28;113834;-63
2022/07/10 05:26:49;;;;;;;3.75;2.15;;;;;;;18.38;53.87;102586.44;4989697;28;112926;-63
2022/07/10 05:29:16;;;;;;;6.28;2.58;;;;;;;18.42;53.72;102582.69;4988343;28;123996;-63
2022/07/10 05:31:44;;;;;;;5.80;2.13;;;;;;;18.47;53.58;102582.44;4990346;28;123837;-63
2022/07/10 05:34:11;;;;;;;5.57;2.03;;;;;;;18.51;53.71;102580.47;4990822;28;114597;-62
2022/07/10 05:36:38;;;;;;;5.30;2.13;;;;;;;18.55;53.65;102582.06;4985443;28;113790;-62
2022/07/10 05:39:06;;;;;;;4.57;2.20;;;;;;;18.57;53.66;102588.22;4985438;28;124395;-64
2022/07/10 05:41:33;;;;;;;6.38;2.00;;;;;;;18.60;53.65;102590.75;4988460;28;125190;-62
2022/07/10 05:44:00;;;;;;;4.25;2.00;;;;;;;18.63;53.64;102579.88;4984813;28;114178;-62
2022/07/10 05:46:29;;;;;;;5.32;1.70;;;;;;;18.68;53.73;102578.69;4988534;28;114482;-62
2022/07/10 05:48:57;;;;;;;3.90;2.03;;;;;;;18.75;53.68;102567.63;4983320;28;124213;-62
2022/07/10 05:51:24;;;;;;;5.75;2.10;;;;;;;18.81;53.69;102578.91;4989509;28;123972;-63
2022/07/10 05:54:08;;;;;;;5.47;1.98;;;;;;;18.88;53.45;102575.94;4982640;28;114333;-63
2022/07/10 05:56:35;;;;;;;13.10;2.47;;;;;;;18.93;53.36;102581.91;4989927;28;115598;-62
2022/07/10 05:59:02;;;;;;;5.30;1.83;;;;;;;18.98;53.42;102579.84;4982595;28;124751;-62
2022/07/10 06:01:31;;;;;;;6.05;2.10;;;;;;;19.03;53.47;102584.03;4990548;28;122983;-63
2022/07/10 06:03:58;;;;;;;4.65;2.03;;;;;;;19.10;53.52;102567.59;4988321;28;113932;-62
2022/07/10 06:06:25;;;;;;;5.60;1.95;;;;;;;19.17;53.34;102569.88;4984995;28;113992;-62
2022/07/10 06:08:55;;;;;;;7.65;2.35;;;;;;;19.25;53.26;102580.22;4987349;28;124342;-63
2022/07/10 06:11:22;;;;;;;5.35;1.70;;;;;;;19.33;53.44;102579.81;4985032;28;123896;-63
2022/07/10 06:13:49;;;;;;;4.85;1.75;;;;;;;19.38;53.17;102577.72;4980515;28;114498;-63
2022/07/10 06:16:17;;;;;;;5.57;2.13;;;;;;;19.41;53.05;102572.19;4987588;28;113353;-62
2022/07/10 06:18:44;;;;;;;5.43;1.75;;;;;;;19.43;52.95;102581.03;4985789;28;123973;-62
2022/07/10 06:21:12;;;;;;;5.55;1.95;;;;;;;19.45;52.64;102584.50;4979916;28;123743;-63
2022/07/10 06:23:39;;;;;;;3.95;1.75;;;;;;;19.46;53.02;102586.25;4988824;28;114583;-62
2022/07/10 06:26:06;;;;;;;6.60;2.05;;;;;;;19.49;52.98;102583.38;4991272;28;114937;-62
2022/07/10 06:28:34;;;;;;;6.95;2.15;;;;;;;19.56;52.89;102582.09;4986309;28;124362;-62
2022/07/10 06:31:03;;;;;;;8.07;2.00;;;;;;;19.60;52.81;102583.63;4972501;28;123214;-62
2022/07/10 06:33:32;;;;;;;4.80;1.65;;;;;;;19.64;52.70;102579.81;4984378;28;113523;-62
2022/07/10 06:35:59;;;;;;;6.35;1.80;;;;;;;19.69;52.74;102576.03;4983996;28;114219;-62
2022/07/10 06:38:26;;;;;;;3.90;1.50;;;;;;;19.75;52.74;102570.34;4985846;28;124399;-63
2022/07/10 06:40:53;;;;;;;3.35;1.30;;;;;;;19.83;52.87;102578.81;4988259;28;124206;-63
2022/07/10 06:43:20;;;;;;;5.13;1.10;;;;;;;19.88;52.61;102576.75;4988873;28;115222;-64
2022/07/10 06:45:48;;;;;;;5.43;1.50;;;;;;;19.90;52.20;102574.84;4990281;28;114940;-63
2022/07/10 06:48:16;;;;;;;7.15;1.30;;;;;;;19.94;52.14;102576.41;4984825;28;124092;-63
2022/07/10 06:50:43;;;;;;;3.92;1.25;;;;;;;19.97;52.20;102573.53;4990917;28;124676;-62
2022/07/10 06:53:10;;;;;;;4.53;1.15;;;;;;;20.00;52.06;102570.69;4988835;28;115020;-63
2022/07/10 06:55:38;;;;;;;4.85;1.60;;;;;;;20.02;51.70;102579.53;4991220;28;114128;-63
2022/07/10 06:58:05;;;;;;;6.00;1.20;;;;;;;20.03;51.82;102575.88;4982199;28;123848;-63
2022/07/10 07:00:32;;;;;;;7.43;1.30;;;;;;;20.05;51.64;102578.47;4987166;28;124004;-63
2022/07/10 07:02:59;;;;;;;6.70;1.33;;;;;;;20.09;51.74;102573.78;4988687;28;114309;-63
2022/07/10 07:05:27;;;;;;;5.57;1.35;;;;;;;20.13;51.70;102580.72;4977596;28;114037;-63
2022/07/10 07:07:54;;;;;;;3.90;1.38;;;;;;;20.17;51.81;102582.28;4969562;28;124466;-65
2022/07/10 07:10:21;;;;;;;3.58;1.20;;;;;;;20.21;51.87;102575.75;4988333;28;123552;-63
2022/07/10 07:12:48;;;;;;;4.22;1.58;;;;;;;20.24;51.50;102578.28;4988801;28;114166;-63
2022/07/10 07:15:16;;;;;;;3.30;1.20;;;;;;;20.27;51.44;102580.81;4985225;28;114321;-63
2022/07/10 07:23:15;;;;;;;4.75;1.42;;;;;;;20.32;51.50;102586.75;4981245;28;114309;-63
2022/07/10 07:25:46;;;;;;;6.97;1.42;;;;;;;20.33;51.31;102583.13;4975385;28;114062;-63
2022/07/10 07:28:18;;;;;;;4.88;1.40;;;;;;;20.34;51.45;102587.56;4988806;28;124041;-63
2022/07/10 07:30:49;;;;;;;5.32;1.45;;;;;;;20.36;51.40;102588.34;4989609;28;123527;-63
2022/07/10 07:33:16;;;;;;;4.30;1.55;;;;;;;20.39;51.46;102588.13;4977243;28;115683;-62
2022/07/10 07:35:44;;;;;;;5.18;1.48;;;;;;;20.43;51.43;102588.81;4988417;28;115118;-62
2022/07/10 07:38:11;;;;;;;5.53;1.30;;;;;;;20.47;51.31;102589.50;4986941;28;124156;-63
2022/07/10 07:40:41;;;;;;;5.13;1.30;;;;;;;20.48;51.13;102591.25;4989087;28;123912;-63
2022/07/10 07:43:08;;;;;;;6.97;1.38;;;;;;;20.49;51.22;102587.59;4961508;28;113466;-63
2022/07/10 07:45:35;;;;;;;5.63;1.70;;;;;;;20.52;51.26;102592.81;4974055;28;114217;-62
2022/07/10 07:48:03;;;;;;;5.40;1.38;;;;;;;20.53;51.25;102594.53;4982421;28;122980;-63
2022/07/10 07:50:32;;;;;;;6.80;1.42;;;;;;;20.50;51.22;102600.13;4990496;28;124510;-62
2022/07/10 07:53:04;;;;;;;6.15;1.40;;;;;;;20.48;51.42;102591.25;4986052;28;114276;-63
2022/07/10 07:55:33;;;;;;;6.85;1.75;;;;;;;20.48;51.42;102591.25;4989551;28;114212;-62
2022/07/10 07:58:02;;;;;;;4.90;1.17;;;;;;;20.48;51.30;102585.88;4986017;28;124574;-62
2022/07/10 08:00:30;;;;;;;2.97;1.00;;;;;;;20.48;51.09;102591.25;4990078;28;124309;-63
2022/07/10 08:02:59;;;;;;;4.47;1.25;;;;;;;20.50;51.26;102594.72;4973176;28;113165;-63
2022/07/10 08:05:27;;;;;;;4.22;1.45;;;;;;;20.50;51.16;102590.22;4988356;28;114372;-62
2022/07/10 08:07:57;;;;;;;4.47;1.40;;;;;;;20.51;51.11;102589.25;4974932;28;124306;-63
2022/07/10 08:10:28;;;;;;;6.85;1.10;;;;;;;20.51;50.89;102591.06;4989613;28;124504;-63
2022/07/10 08:12:55;;;;;;;7.32;1.30;;;;;;;20.51;50.89;102585.69;4986563;28;114113;-63
2022/07/10 08:15:23;;;;;;;4.47;1.05;;;;;;;20.51;51.06;102588.38;4977257;28;114062;-62
2022/07/10 08:17:53;;;;;;;6.88;1.73;;;;;;;20.54;51.04;102588.19;4986900;28;124202;-63
2022/07/10 08:20:22;;;;;;;5.95;1.55;;;;;;;20.55;50.79;102592.59;4987209;28;123961;-63
2022/07/10 08:22:51;;;;;;;10.75;1.88;;;;;;;20.56;50.98;102578.22;4978506;28;115236;-63
2022/07/10 08:25:27;;;;;;;7.53;1.30;;;;;;;20.59;51.01;102583.41;4984356;28;114961;-63
2022/07/10 08:27:54;;;;;;;5.13;1.52;;;;;;;20.61;51.09;102586.91;4967260;28;124173;-63
2022/07/10 08:30:21;;;;;;;4.57;1.20;;;;;;;20.64;51.01;102586.72;4983612;28;123776;-63
2022/07/10 08:32:49;;;;;;;2.97;1.17;;;;;;;20.64;51.00;102592.09;4973355;28;114086;-63
2022/07/10 08:35:16;;;;;;;4.35;1.50;;;;;;;20.65;50.84;102593.84;4987738;28;114180;-63
2022/07/10 08:37:47;;;;;;;4.38;1.40;;;;;;;20.65;50.90;102593.84;4974356;28;124540;-63
2022/07/10 08:40:16;;;;;;;5.70;1.48;;;;;;;20.67;51.28;102586.53;4979163;28;123705;-63
2022/07/10 08:42:44;;;;;;;7.38;1.33;;;;;;;20.71;51.03;102588.09;4981323;28;114043;-63
2022/07/10 08:45:12;;;;;;;6.28;1.50;;;;;;;20.75;51.17;102583.38;4979952;28;113901;-63
2022/07/10 08:47:41;;;;;;;5.13;1.58;;;;;;;20.77;50.78;102585.00;4985723;28;124139;-63
2022/07/10 08:50:22;;;;;;;3.47;1.38;;;;;;;20.80;51.09;102587.53;4969105;28;123628;-63
2022/07/10 08:52:58;;;;;;;5.18;1.30;;;;;;;20.84;51.07;102587.34;4983561;28;113335;-62
2022/07/10 08:55:26;;;;;;;5.78;1.60;;;;;;;20.88;50.89;102583.50;4983911;28;112955;-63
2022/07/10 08:57:55;;;;;;;4.70;1.50;;;;;;;20.91;51.00;102588.72;4986074;28;124723;-63
2022/07/10 09:00:24;;;;;;;4.95;1.30;;;;;;;20.94;50.85;102583.13;4987163;28;125256;-63
2022/07/10 09:02:53;;;;;;;5.32;1.38;;;;;;;20.97;51.00;102582.94;4984212;28;114454;-63
2022/07/10 09:05:20;;;;;;;5.82;1.55;;;;;;;21.01;51.09;102589.88;4987515;28;114394;-63
2022/07/10 09:07:48;;;;;;;4.53;1.70;;;;;;;21.06;50.96;102587.78;4970367;28;123838;-63
2022/07/10 09:10:15;;;;;;;3.30;1.70;;;;;;;21.08;50.99;102580.47;4975834;28;124400;-62
2022/07/10 09:12:52;;;;;;;5.72;1.45;;;;;;;21.12;51.24;102587.38;4982160;28;115178;-63
2022/07/10 09:15:22;;;;;;;4.80;1.50;;;;;;;21.19;51.26;102572.56;4984572;28;115038;-63
2022/07/10 09:18:02;;;;;;;4.03;1.70;;;;;;;21.30;51.27;102573.72;4979360;28;124461;-63
2022/07/10 09:20:33;;;;;;;5.90;1.50;;;;;;;21.41;51.08;102570.34;4992492;28;123802;-63
2022/07/10 09:23:20;;;;;;;5.72;1.50;;;;;;;21.51;51.00;102583.19;4980343;28;114079;-63
2022/07/10 09:25:49;;;;;;;8.13;1.90;;;;;;;21.61;50.76;102578.06;4978195;28;114314;-63
2022/07/10 09:28:19;;;;;;;4.80;1.38;;;;;;;21.69;50.65;102569.47;4991264;28;123153;-63
2022/07/10 09:30:46;;;;;;;3.35;1.50;;;;;;;21.76;50.42;102562.72;4991103;28;123839;-63
2022/07/10 09:33:31;;;;;;;5.10;1.65;;;;;;;21.83;50.53;102555.97;4991705;28;114598;-63
2022/07/10 09:36:05;;;;;;;4.00;1.50;;;;;;;21.92;50.39;102555.34;4989927;28;113779;-62
2022/07/10 09:38:51;;;;;;;5.03;1.55;;;;;;;22.03;50.32;102540.28;4985800;28;124754;-63
2022/07/10 09:41:23;;;;;;;4.13;1.30;;;;;;;22.13;50.17;102546.78;4990862;28;123821;-63
2022/07/10 09:43:56;;;;;;;4.95;1.50;;;;;;;22.24;50.23;102544.22;4992065;28;114658;-63
2022/07/10 09:46:31;;;;;;;7.22;1.90;;;;;;;22.42;50.20;102535.91;4991264;28;114325;-63
2022/07/10 09:49:01;;;;;;;4.03;1.70;;;;;;;22.59;50.62;102538.31;4991549;28;124881;-63
2022/07/10 09:51:34;;;;;;;8.63;1.80;;;;;;;22.76;49.87;102533.56;4987147;28;123970;-63
2022/07/10 09:54:03;;;;;;;6.13;1.80;;;;;;;22.90;49.92;102541.56;4975293;28;113553;-63
2022/07/10 09:56:53;;;;;;;5.88;1.70;;;;;;;23.08;49.74;102536.72;4991847;28;113823;-64
2022/07/10 09:59:21;;;;;;;3.92;1.45;;;;;;;23.26;49.29;102529.13;4990889;28;124214;-62
2022/07/10 10:01:52;;;;;;;4.20;1.40;;;;;;;23.35;48.74;102531.16;4977594;28;123780;-63
2022/07/10 10:04:23;;;;;;;4.40;1.40;;;;;;;23.39;48.47;102542.63;4973772;28;115482;-64
2022/07/10 10:06:56;;;;;;;5.28;1.40;;;;;;;23.43;48.25;102545.00;4979442;28;114846;-63
2022/07/10 10:09:25;;;;;;;5.05;1.73;;;;;;;23.47;47.94;102546.50;4978690;28;123996;-63
2022/07/10 10:12:02;;;;;;;3.35;1.50;;;;;;;23.49;47.84;102547.25;4986053;28;125169;-63
2022/07/10 10:14:33;;;;;;;4.57;1.67;;;;;;;23.51;47.64;102545.28;4969786;28;114345;-63
2022/07/10 10:17:01;;;;;;;4.05;1.50;;;;;;;23.51;47.50;102542.59;4983121;28;113935;-63
2022/07/10 10:22:18;;;;;;;3.95;1.45;;;;;;;23.49;47.35;102543.69;4980027;28;124508;-63
2022/07/10 10:24:46;;;;;;;3.00;1.30;;;;;;;23.49;47.29;102544.56;4986011;28;114551;-64
2022/07/10 10:27:14;;;;;;;4.68;1.33;;;;;;;23.47;47.03;102535.69;4986224;28;113905;-63
2022/07/10 10:29:42;;;;;;;3.60;1.40;;;;;;;23.43;46.98;102538.72;4987602;28;124795;-64
2022/07/10 10:32:10;;;;;;;2.53;1.33;;;;;;;23.43;47.29;102544.13;4984763;28;124068;-63
2022/07/10 10:34:56;;;;;;;2.13;1.38;;;;;;;23.48;47.60;102534.69;4989283;28;115380;-63
2022/07/10 10:37:36;;;;;;;4.65;1.65;;;;;;;23.58;47.63;102525.91;4989057;28;113848;-63
2022/07/10 10:40:05;;;;;;;4.40;1.85;;;;;;;23.67;47.25;102519.81;4990612;28;125978;-63
2022/07/10 10:42:46;;;;;;;2.95;1.83;;;;;;;23.68;47.12;102521.56;4973383;28;124240;-64
2022/07/10 10:45:29;;;;;;;4.22;1.90;;;;;;;23.71;47.47;102515.91;4986997;28;114711;-63
2022/07/10 10:48:00;;;;;;;3.85;1.75;;;;;;;23.80;47.16;102520.66;4988045;28;113992;-64
2022/07/10 10:50:51;;;;;;;3.78;1.48;;;;;;;23.89;47.02;102522.69;4979059;28;124328;-64
2022/07/10 10:53:26;;;;;;;2.90;1.35;;;;;;;23.94;46.76;102516.06;4988104;28;124390;-63
2022/07/10 10:56:13;;;;;;;7.15;1.65;;;;;;;24.00;46.60;102515.59;4972073;28;114970;-63
2022/07/10 10:58:41;;;;;;;2.70;1.20;;;;;;;24.05;46.40;102513.41;4980111;28;115438;-63
2022/07/10 11:01:21;;;;;;;3.90;1.13;;;;;;;24.08;46.37;102513.19;4975911;28;124378;-63
2022/07/10 11:04:03;;;;;;;3.83;1.52;;;;;;;24.15;46.20;102509.03;4989731;28;124200;-64
2022/07/10 11:06:44;;;;;;;3.50;1.27;;;;;;;24.24;46.17;102502.91;4985853;28;114244;-64
2022/07/10 11:09:26;;;;;;;2.58;1.20;;;;;;;24.36;46.01;102500.22;4988312;28;114565;-64
2022/07/10 11:12:08;;;;;;;3.95;1.17;;;;;;;24.48;45.98;102493.84;4987444;28;123928;-64
2022/07/10 11:14:40;;;;;;;2.63;1.15;;;;;;;24.60;45.80;102503.75;4987993;28;124484;-64
2022/07/10 11:17:08;;;;;;;2.20;1.20;;;;;;;24.70;45.18;102505.75;4988404;28;114090;-63
2022/07/10 11:19:36;;;;;;;2.28;1.17;;;;;;;24.78;44.98;102506.00;4978126;28;113857;-63
2022/07/10 11:22:37;;;;;;;2.28;1.30;;;;;;;24.85;45.36;102501.81;4982383;28;123865;-64
2022/07/10 11:25:41;;;;;;;3.20;1.30;;;;;;;24.88;44.98;102506.97;4985919;28;123754;-64
2022/07/10 11:28:10;;;;;;;3.85;1.50;;;;;;;24.87;44.53;102511.53;4975253;28;114431;-63
2022/07/10 11:30:46;;;;;;;2.30;1.42;;;;;;;24.86;44.88;102508.94;4988246;28;113972;-63
2022/07/10 11:33:14;;;;;;;2.22;1.30;;;;;;;24.88;44.79;102506.97;4983401;28;124124;-63
2022/07/10 11:35:46;;;;;;;4.53;1.30;;;;;;;24.92;44.65;102508.50;4985387;28;124614;-63